createdAt,value
2023-03-11T00:00:31.850Z,10.55
2023-03-11T00:03:02.082Z,10.06
2023-03-11T00:05:32.168Z,10.03
2023-03-11T00:08:01.140Z,10.15
2023-03-11T00:10:37.230Z,9.87
2023-03-11T00:13:05.834Z,9.98
2023-03-11T00:15:33.971Z,10.26
2023-03-11T00:18:01.507Z,10.38
2023-03-11T00:20:38.129Z,10.05
2023-03-11T00:23:05.943Z,10.13
2023-03-11T00:25:34.879Z,9.95
2023-03-11T00:28:02.429Z,10.08
2023-03-11T00:30:30.083Z,9.95
2023-03-11T00:32:58.509Z,9.87
2023-03-11T00:35:28.764Z,10.07
2023-03-11T00:37:58.260Z,9.84
2023-03-11T00:40:28.114Z,10.24
2023-03-11T00:42:55.932Z,9.89
2023-03-11T00:45:23.685Z,9.89
2023-03-11T00:47:52.772Z,10.03
2023-03-11T00:50:23.665Z,10.27
2023-03-11T00:52:51.678Z,10.47
2023-03-11T00:55:22.766Z,10.21
2023-03-11T00:58:00.140Z,10.47
2023-03-11T01:00:29.377Z,10.18
2023-03-11T01:02:57.297Z,10.13
2023-03-11T01:05:28.002Z,10.15
2023-03-11T01:07:56.016Z,9.92
2023-03-11T01:10:23.904Z,10.04
2023-03-11T01:12:51.950Z,9.93
2023-03-11T01:15:29.348Z,10.32
2023-03-11T01:17:56.875Z,10.16
2023-03-11T01:20:24.704Z,10.29
2023-03-11T01:22:52.203Z,9.94
2023-03-11T01:25:20.983Z,9.85
2023-03-11T01:27:48.775Z,9.98
2023-03-11T01:30:19.175Z,9.90
2023-03-11T01:32:46.850Z,9.54
2023-03-11T01:35:17.927Z,9.85
2023-03-11T01:37:46.270Z,9.85
2023-03-11T01:40:29.926Z,10.21
2023-03-11T01:42:59.463Z,9.90
2023-03-11T01:45:53.584Z,9.74
2023-03-11T01:48:22.028Z,9.84
2023-03-11T01:50:50.176Z,9.77
2023-03-11T01:53:18.201Z,10.06
2023-03-11T01:55:47.318Z,9.80
2023-03-11T01:58:21.573Z,10.06
2023-03-11T02:00:50.035Z,9.73
2023-03-11T02:03:21.955Z,9.59
2023-03-11T02:05:50.532Z,10.19
2023-03-11T02:08:18.598Z,9.75
2023-03-11T02:10:47.053Z,9.92
2023-03-11T02:13:15.562Z,10.07
2023-03-11T02:15:43.315Z,9.99
2023-03-11T02:18:14.701Z,9.99
2023-03-11T02:20:49.591Z,9.48
2023-03-11T02:23:19.137Z,9.84
2023-03-11T02:25:54.839Z,9.58
2023-03-11T02:28:23.502Z,9.41
2023-03-11T02:30:51.096Z,9.86
2023-03-11T02:33:19.856Z,9.83
2023-03-11T02:35:49.083Z,9.77
2023-03-11T02:38:16.840Z,9.81
2023-03-11T02:40:58.694Z,9.70
2023-03-11T02:43:46.843Z,9.90
2023-03-11T02:46:15.163Z,9.41
2023-03-11T02:48:43.622Z,9.75
2023-03-11T02:51:12.255Z,9.79
2023-03-11T02:53:45.360Z,9.88
2023-03-11T02:56:14.185Z,9.67
2023-03-11T02:58:41.641Z,9.61
2023-03-11T03:01:10.237Z,9.75
2023-03-11T03:03:38.269Z,9.68
2023-03-11T03:06:06.538Z,9.76
2023-03-11T03:08:34.016Z,9.58
2023-03-11T03:11:03.316Z,9.67
2023-03-11T03:13:32.322Z,9.47
2023-03-11T03:16:00.659Z,9.50
2023-03-11T03:18:28.955Z,9.76
2023-03-11T03:20:56.573Z,9.54
2023-03-11T03:23:24.152Z,9.66
2023-03-11T03:25:51.920Z,9.74
2023-03-11T03:28:19.884Z,9.52
2023-03-11T03:30:47.885Z,9.31
2023-03-11T03:33:15.750Z,9.40
2023-03-11T03:35:45.121Z,9.49
2023-03-11T03:38:13.150Z,8.98
2023-03-11T03:40:46.154Z,9.26
2023-03-11T03:43:14.657Z,9.01
2023-03-11T03:45:44.098Z,9.29
2023-03-11T03:48:11.605Z,9.35
2023-03-11T03:50:40.394Z,9.38
2023-03-11T03:53:08.381Z,9.00
2023-03-11T03:55:36.026Z,9.00
2023-03-11T03:58:04.745Z,8.96
2023-03-11T04:00:32.729Z,8.89
2023-03-11T04:03:01.061Z,8.80
2023-03-11T04:05:29.326Z,8.83
2023-03-11T04:07:56.983Z,8.73
2023-03-11T04:10:24.759Z,8.91
2023-03-11T04:12:52.413Z,8.97
2023-03-11T04:15:20.172Z,8.76
2023-03-11T04:17:48.046Z,8.62
2023-03-11T04:20:15.653Z,8.62
2023-03-11T04:22:43.827Z,8.46
2023-03-11T04:25:11.725Z,8.68
2023-03-11T04:27:42.627Z,8.83
2023-03-11T04:30:10.992Z,8.53
2023-03-11T04:32:38.768Z,8.57
2023-03-11T04:35:06.643Z,8.48
2023-03-11T04:37:34.284Z,8.02
2023-03-11T04:40:02.264Z,8.27
2023-03-11T04:42:30.896Z,8.29
2023-03-11T04:44:58.398Z,8.30
2023-03-11T04:47:26.485Z,8.03
2023-03-11T04:49:56.131Z,8.26
2023-03-11T04:52:24.402Z,7.94
2023-03-11T04:54:52.266Z,8.13
2023-03-11T04:57:19.841Z,7.76
2023-03-11T04:59:48.066Z,7.85
2023-03-11T05:02:16.010Z,7.72
2023-03-11T05:04:45.738Z,7.46
2023-03-11T05:07:15.833Z,7.55
2023-03-11T05:09:44.027Z,7.21
2023-03-11T05:12:12.766Z,7.40
2023-03-11T05:14:40.879Z,7.00
2023-03-11T05:17:10.096Z,7.14
2023-03-11T05:19:38.112Z,7.01
2023-03-11T05:22:06.078Z,6.88
2023-03-11T05:24:34.281Z,6.82
2023-03-11T05:27:02.213Z,6.75
2023-03-11T05:29:30.793Z,6.95
2023-03-11T05:31:59.370Z,6.56
2023-03-11T05:34:26.883Z,6.47
2023-03-11T05:36:54.336Z,6.60
2023-03-11T05:39:22.909Z,6.72
2023-03-11T05:41:51.735Z,6.57
2023-03-11T05:44:19.626Z,6.57
2023-03-11T05:46:47.443Z,6.65
2023-03-11T05:49:14.997Z,6.29
2023-03-11T05:51:42.519Z,6.60
2023-03-11T05:54:15.023Z,6.78
2023-03-11T05:56:44.549Z,6.24
2023-03-11T05:59:16.480Z,6.27
2023-03-11T06:01:45.561Z,6.63
2023-03-11T06:04:13.682Z,6.20
2023-03-11T06:06:41.673Z,6.46
2023-03-11T06:09:13.854Z,6.16
2023-03-11T06:11:42.257Z,6.50
2023-03-11T06:14:12.506Z,6.25
2023-03-11T06:16:40.754Z,6.20
2023-03-11T06:19:09.505Z,6.54
2023-03-11T06:21:37.786Z,6.27
2023-03-11T06:24:05.688Z,6.42
2023-03-11T06:26:33.452Z,6.07
2023-03-11T06:29:01.371Z,6.23
2023-03-11T06:31:29.853Z,6.36
2023-03-11T06:33:59.244Z,6.01
2023-03-11T06:36:27.207Z,6.07
2023-03-11T06:38:54.926Z,6.25
2023-03-11T06:41:23.822Z,6.38
2023-03-11T06:43:51.464Z,6.36
2023-03-11T06:46:21.677Z,6.20
2023-03-11T06:48:52.347Z,6.24
2023-03-11T06:51:21.220Z,6.04
2023-03-11T06:53:51.833Z,6.02
2023-03-11T06:56:21.196Z,6.12
2023-03-11T06:58:50.015Z,6.04
2023-03-11T07:01:20.382Z,5.76
2023-03-11T07:03:49.391Z,6.03
2023-03-11T07:06:22.667Z,6.05
2023-03-11T07:08:51.688Z,6.06
2023-03-11T07:11:24.325Z,6.37
2023-03-11T07:13:53.653Z,6.41
2023-03-11T07:16:26.913Z,6.07
2023-03-11T07:18:56.699Z,6.38
2023-03-11T07:21:24.569Z,6.27
2023-03-11T07:23:57.098Z,6.17
2023-03-11T07:26:25.702Z,6.11
2023-03-11T07:28:54.661Z,5.87
2023-03-11T07:31:24.748Z,6.47
2023-03-11T07:33:53.095Z,6.05
2023-03-11T07:36:22.992Z,6.23
2023-03-11T07:38:59.546Z,6.57
2023-03-11T07:41:27.380Z,6.83
2023-03-11T07:43:56.216Z,6.61
2023-03-11T07:46:25.072Z,6.51
2023-03-11T07:48:53.059Z,6.50
2023-03-11T07:51:25.864Z,6.28
2023-03-11T07:53:54.963Z,5.90
2023-03-11T07:56:25.940Z,5.94
2023-03-11T07:58:53.793Z,6.02
2023-03-11T08:01:23.158Z,5.94
2023-03-11T08:03:56.857Z,6.16
2023-03-11T08:06:27.506Z,6.46
2023-03-11T08:08:55.228Z,6.08
2023-03-11T08:11:23.163Z,6.02
2023-03-11T08:13:51.833Z,6.35
2023-03-11T08:16:21.347Z,6.33
2023-03-11T08:18:49.849Z,6.51
2023-03-11T08:21:19.903Z,6.07
2023-03-11T08:23:47.640Z,6.22
2023-03-11T08:26:17.652Z,6.28
2023-03-11T08:28:45.367Z,6.45
2023-03-11T08:31:15.609Z,6.37
2023-03-11T08:33:44.110Z,6.42
2023-03-11T08:36:17.339Z,6.45
2023-03-11T08:38:45.109Z,6.64
2023-03-11T08:41:12.951Z,6.80
2023-03-11T08:43:41.364Z,6.74
2023-03-11T08:46:09.255Z,6.85
2023-03-11T08:48:37.348Z,6.87
2023-03-11T08:51:12.466Z,7.32
2023-03-11T08:53:39.902Z,7.15
2023-03-11T08:56:08.191Z,7.15
2023-03-11T08:58:35.986Z,7.40
2023-03-11T09:01:14.125Z,7.32
2023-03-11T09:03:41.601Z,7.19
2023-03-11T09:06:12.292Z,7.13
2023-03-11T09:08:39.985Z,7.52
2023-03-11T09:11:08.210Z,7.69
2023-03-11T09:13:36.117Z,8.10
2023-03-11T09:16:05.996Z,7.71
2023-03-11T09:18:33.449Z,7.87
2023-03-11T09:21:01.237Z,7.60
2023-03-11T09:23:30.179Z,7.64
2023-03-11T09:25:57.590Z,7.69
2023-03-11T09:28:24.932Z,7.48
2023-03-11T09:30:52.625Z,7.63
2023-03-11T09:33:20.077Z,7.20
2023-03-11T09:35:47.794Z,6.80
2023-03-11T09:38:16.025Z,7.09
2023-03-11T09:41:02.843Z,6.95
2023-03-11T09:43:43.138Z,6.78
2023-03-11T09:46:26.661Z,6.99
2023-03-11T09:49:01.982Z,7.09
2023-03-11T09:51:36.598Z,6.57
2023-03-11T09:54:09.526Z,6.77
2023-03-11T09:56:40.012Z,6.93
2023-03-11T09:59:19.021Z,6.76
2023-03-11T10:01:50.695Z,7.09
2023-03-11T10:04:34.813Z,7.42
2023-03-11T10:07:03.338Z,7.35
2023-03-11T10:09:57.050Z,7.37
2023-03-11T10:12:43.769Z,7.10
2023-03-11T10:15:12.106Z,6.80
2023-03-11T10:17:58.987Z,6.98
2023-03-11T10:20:49.830Z,6.72
2023-03-11T10:23:37.961Z,6.94
2023-03-11T10:26:16.268Z,6.79
2023-03-11T10:28:47.794Z,6.50
2023-03-11T10:31:31.444Z,6.26
2023-03-11T10:34:15.509Z,6.70
2023-03-11T10:37:01.960Z,6.70
2023-03-11T10:39:31.685Z,6.20
2023-03-11T10:42:06.121Z,6.28
2023-03-11T10:44:39.678Z,6.17
2023-03-11T10:47:14.511Z,6.36
2023-03-11T10:49:42.250Z,6.21
2023-03-11T10:52:09.650Z,6.88
2023-03-11T10:54:48.796Z,6.96
2023-03-11T10:57:28.248Z,7.23
2023-03-11T11:00:00.313Z,7.79
2023-03-11T11:02:38.607Z,7.60
2023-03-11T11:05:06.131Z,7.49
2023-03-11T11:07:36.681Z,8.05
2023-03-11T11:10:23.677Z,7.57
2023-03-11T11:12:57.704Z,7.75
2023-03-11T11:15:36.624Z,7.80
2023-03-11T11:18:18.483Z,7.85
2023-03-11T11:21:37.566Z,7.91
2023-03-11T11:24:18.483Z,7.85
2023-03-11T11:27:05.058Z,7.60
2023-03-11T11:29:34.715Z,7.51
2023-03-11T11:32:20.803Z,7.68
2023-03-11T11:34:56.968Z,8.25
2023-03-11T11:37:27.028Z,7.79
2023-03-11T11:40:01.954Z,7.87
2023-03-11T11:42:31.223Z,7.61
2023-03-11T11:45:24.741Z,7.43
2023-03-11T11:47:59.454Z,7.49
2023-03-11T11:50:33.116Z,7.29
2023-03-11T11:53:09.329Z,7.45
2023-03-11T11:55:41.836Z,7.71
2023-03-11T11:58:12.926Z,7.49
2023-03-11T12:00:53.152Z,7.78
2023-03-11T12:03:50.034Z,7.21
2023-03-11T12:06:37.209Z,7.19
2023-03-11T12:09:16.681Z,7.56
2023-03-11T12:11:50.229Z,7.65
2023-03-11T12:14:46.443Z,7.32
2023-03-11T12:17:14.857Z,7.28
2023-03-11T12:19:52.209Z,7.82
2023-03-11T12:22:38.515Z,7.72
2023-03-11T12:25:29.957Z,7.82
2023-03-11T12:28:04.841Z,7.14
2023-03-11T12:30:36.987Z,6.99
2023-03-11T12:33:12.775Z,7.42
2023-03-11T12:35:40.426Z,7.35
2023-03-11T12:38:18.972Z,7.47
2023-03-11T12:40:58.749Z,7.51
2023-03-11T12:43:35.213Z,7.46
2023-03-11T12:46:05.908Z,7.46
2023-03-11T12:48:50.461Z,7.61
2023-03-11T12:51:27.358Z,7.35
2023-03-11T12:53:55.394Z,7.59
2023-03-11T12:56:23.450Z,7.25
2023-03-11T12:59:06.099Z,7.54
2023-03-11T13:01:49.154Z,7.49
2023-03-11T13:04:31.075Z,7.65
2023-03-11T13:07:08.712Z,7.76
2023-03-11T13:09:36.867Z,7.86
2023-03-11T13:12:40.599Z,7.79
2023-03-11T13:15:20.367Z,7.87
2023-03-11T13:18:13.030Z,7.61
2023-03-11T13:20:43.547Z,7.42
2023-03-11T13:23:14.570Z,7.48
2023-03-11T13:25:48.680Z,7.36
2023-03-11T13:28:45.401Z,6.93
2023-03-11T13:31:16.290Z,7.19
2023-03-11T13:34:16.147Z,7.00
2023-03-11T13:37:21.359Z,7.59
2023-03-11T13:40:00.878Z,7.34
2023-03-11T13:42:32.795Z,7.30
2023-03-11T13:45:01.376Z,7.05
2023-03-11T13:47:30.466Z,6.80
2023-03-11T13:50:09.358Z,6.99
2023-03-11T13:52:44.886Z,6.89
2023-03-11T13:55:22.549Z,6.78
2023-03-11T13:57:53.034Z,7.00
2023-03-11T14:00:24.467Z,7.27
2023-03-11T14:03:02.943Z,6.99
2023-03-11T14:05:32.814Z,6.83
2023-03-11T14:08:27.382Z,7.37
2023-03-11T14:11:16.426Z,7.20
2023-03-11T14:13:50.985Z,7.09
2023-03-11T14:16:23.543Z,7.01
2023-03-11T14:19:08.796Z,6.99
2023-03-11T14:21:36.992Z,6.63
2023-03-11T14:24:05.638Z,6.63
2023-03-11T14:26:35.840Z,6.65
2023-03-11T14:29:10.854Z,6.46
2023-03-11T14:31:41.083Z,6.36
2023-03-11T14:34:25.928Z,6.69
2023-03-11T14:37:01.068Z,6.70
2023-03-11T14:39:40.122Z,6.60
2023-03-11T14:42:37.101Z,6.64
2023-03-11T14:45:10.992Z,6.51
2023-03-11T14:47:42.155Z,6.44
2023-03-11T14:50:18.702Z,6.54
2023-03-11T14:52:50.933Z,6.33
2023-03-11T14:55:27.764Z,6.48
2023-03-11T14:58:00.357Z,6.41
2023-03-11T15:00:31.936Z,6.32
2023-03-11T15:03:14.182Z,6.22
2023-03-11T15:05:48.837Z,6.49
2023-03-11T15:08:19.746Z,6.08
2023-03-11T15:11:25.169Z,5.80
2023-03-11T15:13:53.894Z,5.90
2023-03-11T15:16:30.332Z,5.68
2023-03-11T15:19:31.248Z,5.58
2023-03-11T15:22:17.777Z,5.70
2023-03-11T15:24:59.260Z,5.77
2023-03-11T15:27:32.964Z,5.54
2023-03-11T15:30:02.078Z,5.84
2023-03-11T15:32:29.512Z,5.88
2023-03-11T15:35:02.488Z,5.97
2023-03-11T15:37:31.073Z,5.95
2023-03-11T15:40:12.228Z,5.86
2023-03-11T15:42:40.215Z,5.76
2023-03-11T15:45:20.623Z,5.90
2023-03-11T15:47:49.546Z,6.08
2023-03-11T15:50:40.198Z,5.74
2023-03-11T15:53:14.897Z,5.72
2023-03-11T15:55:42.694Z,5.64
2023-03-11T15:58:12.729Z,6.07
2023-03-11T16:00:43.332Z,5.84
2023-03-11T16:03:11.298Z,5.84
2023-03-11T16:05:40.403Z,5.47
2023-03-11T16:08:08.496Z,5.52
2023-03-11T16:10:36.729Z,5.56
2023-03-11T16:13:05.133Z,5.48
2023-03-11T16:15:35.985Z,5.40
2023-03-11T16:18:06.365Z,5.68
2023-03-11T16:20:42.370Z,5.54
2023-03-11T16:23:19.635Z,5.68
2023-03-11T16:25:48.396Z,5.54
2023-03-11T16:28:19.470Z,5.22
2023-03-11T16:30:50.103Z,4.94
2023-03-11T16:33:18.523Z,5.17
2023-03-11T16:35:47.143Z,5.35
2023-03-11T16:38:17.728Z,5.18
2023-03-11T16:40:50.418Z,5.17
2023-03-11T16:43:18.510Z,5.21
2023-03-11T16:45:46.756Z,5.05
2023-03-11T16:48:15.500Z,4.91
2023-03-11T16:50:43.890Z,5.04
2023-03-11T16:53:14.527Z,5.13
2023-03-11T16:55:42.962Z,4.98
2023-03-11T16:58:10.934Z,4.94
2023-03-11T17:00:39.384Z,5.24
2023-03-11T17:03:07.627Z,5.34
2023-03-11T17:05:35.773Z,5.21
2023-03-11T17:08:05.565Z,5.12
2023-03-11T17:10:38.492Z,5.52
2023-03-11T17:13:07.852Z,5.62
2023-03-11T17:15:36.336Z,4.98
2023-03-11T17:18:07.899Z,5.49
2023-03-11T17:20:41.911Z,4.99
2023-03-11T17:23:12.522Z,4.93
2023-03-11T17:25:42.250Z,5.13
2023-03-11T17:28:10.580Z,5.08
2023-03-11T17:30:45.427Z,4.48
2023-03-11T17:33:14.960Z,4.80
2023-03-11T17:35:43.305Z,4.87
2023-03-11T17:38:11.456Z,4.90
2023-03-11T17:40:40.080Z,5.07
2023-03-11T17:43:07.984Z,4.88
2023-03-11T17:45:39.070Z,4.55
2023-03-11T17:48:07.979Z,5.19
2023-03-11T17:50:40.013Z,5.16
2023-03-11T17:53:09.455Z,5.02
2023-03-11T17:55:40.337Z,4.99
2023-03-11T17:58:09.144Z,5.06
2023-03-11T18:00:39.188Z,4.86
2023-03-11T18:03:08.197Z,4.59
2023-03-11T18:05:38.471Z,4.77
2023-03-11T18:08:07.255Z,5.23
2023-03-11T18:10:38.700Z,4.91
2023-03-11T18:13:07.018Z,4.84
2023-03-11T18:15:36.656Z,4.50
2023-03-11T18:18:05.055Z,4.49
2023-03-11T18:20:33.230Z,4.50
2023-03-11T18:23:02.175Z,4.32
2023-03-11T18:25:30.565Z,3.90
2023-03-11T18:27:58.745Z,4.33
2023-03-11T18:30:27.615Z,4.39
2023-03-11T18:32:56.528Z,4.02
2023-03-11T18:35:33.900Z,4.27
2023-03-11T18:38:02.390Z,4.33
2023-03-11T18:40:30.380Z,4.18
2023-03-11T18:42:58.732Z,4.34
2023-03-11T18:45:27.161Z,4.09
2023-03-11T18:47:56.050Z,3.89
2023-03-11T18:50:24.344Z,4.04
2023-03-11T18:52:53.036Z,4.31
2023-03-11T18:55:21.866Z,4.33
2023-03-11T18:57:51.098Z,4.42
2023-03-11T19:00:23.939Z,4.06
2023-03-11T19:02:58.980Z,4.30
2023-03-11T19:05:28.188Z,4.11
2023-03-11T19:07:57.398Z,4.04
2023-03-11T19:10:25.963Z,3.84
2023-03-11T19:12:54.728Z,4.01
2023-03-11T19:15:23.573Z,4.02
2023-03-11T19:18:05.762Z,4.18
2023-03-11T19:20:36.702Z,3.93
2023-03-11T19:23:06.254Z,4.02
2023-03-11T19:25:36.210Z,3.73
2023-03-11T19:28:06.742Z,3.97
2023-03-11T19:30:34.946Z,3.72
2023-03-11T19:33:03.866Z,4.05
2023-03-11T19:35:33.301Z,4.55
2023-03-11T19:38:02.045Z,4.07
2023-03-11T19:40:31.924Z,3.95
2023-03-11T19:43:01.390Z,4.13
2023-03-11T19:45:31.466Z,4.09
2023-03-11T19:48:01.036Z,3.93
2023-03-11T19:50:29.968Z,3.69
2023-03-11T19:52:58.539Z,3.98
2023-03-11T19:55:27.590Z,3.48
2023-03-11T19:57:56.817Z,3.24
2023-03-11T20:00:26.493Z,3.40
2023-03-11T20:02:57.220Z,3.46
2023-03-11T20:05:25.661Z,3.36
2023-03-11T20:07:53.850Z,3.22
2023-03-11T20:10:22.963Z,3.38
2023-03-11T20:13:01.784Z,3.31
2023-03-11T20:15:30.747Z,3.14
2023-03-11T20:18:01.339Z,3.16
2023-03-11T20:20:30.876Z,3.08
2023-03-11T20:23:00.796Z,3.51
2023-03-11T20:25:32.669Z,3.48
2023-03-11T20:28:01.361Z,3.47
2023-03-11T20:30:31.071Z,3.53
2023-03-11T20:33:00.940Z,3.44
2023-03-11T20:35:29.468Z,3.57
2023-03-11T20:37:58.913Z,3.55
2023-03-11T20:40:26.966Z,3.58
2023-03-11T20:42:55.556Z,3.19
2023-03-11T20:45:24.076Z,3.34
2023-03-11T20:47:54.211Z,3.40
2023-03-11T20:50:23.916Z,2.90
2023-03-11T20:52:52.451Z,3.25
2023-03-11T20:55:23.556Z,3.22
2023-03-11T20:57:54.471Z,3.17
2023-03-11T21:00:23.089Z,3.37
2023-03-11T21:02:52.232Z,2.86
2023-03-11T21:05:20.456Z,2.72
2023-03-11T21:07:49.280Z,3.01
2023-03-11T21:10:18.046Z,2.93
2023-03-11T21:12:45.885Z,3.10
2023-03-11T21:15:13.464Z,2.89
2023-03-11T21:17:41.649Z,3.20
2023-03-11T21:20:10.206Z,2.88
2023-03-11T21:22:39.490Z,3.25
2023-03-11T21:25:11.449Z,2.79
2023-03-11T21:27:40.207Z,2.90
2023-03-11T21:30:08.817Z,3.16
2023-03-11T21:32:36.363Z,2.58
2023-03-11T21:35:04.576Z,3.26
2023-03-11T21:37:32.923Z,3.45
2023-03-11T21:40:01.635Z,3.28
2023-03-11T21:42:30.173Z,3.25
2023-03-11T21:44:58.016Z,3.34
2023-03-11T21:47:25.836Z,2.69
2023-03-11T21:49:53.323Z,2.84
2023-03-11T21:52:21.053Z,3.02
2023-03-11T21:54:48.709Z,3.32
2023-03-11T21:57:16.228Z,2.55
2023-03-11T21:59:43.988Z,2.93
2023-03-11T22:02:16.380Z,3.18
2023-03-11T22:04:44.183Z,2.81
2023-03-11T22:07:11.630Z,2.61
2023-03-11T22:09:39.165Z,2.95
2023-03-11T22:12:07.104Z,2.76
2023-03-11T22:14:34.527Z,2.84
2023-03-11T22:17:02.084Z,2.86
2023-03-11T22:19:29.881Z,2.78
2023-03-11T22:21:57.410Z,3.05
2023-03-11T22:24:24.816Z,2.53
2023-03-11T22:26:52.828Z,2.53
2023-03-11T22:29:20.262Z,2.67
2023-03-11T22:31:47.650Z,2.66
2023-03-11T22:34:15.362Z,2.37
2023-03-11T22:36:42.745Z,2.77
2023-03-11T22:39:10.145Z,2.89
2023-03-11T22:41:37.860Z,2.33
2023-03-11T22:44:05.653Z,2.43
2023-03-11T22:46:33.074Z,2.55
2023-03-11T22:49:00.810Z,2.97
2023-03-11T22:51:28.213Z,2.62
2023-03-11T22:53:55.582Z,2.57
2023-03-11T22:56:23.288Z,2.55
2023-03-11T22:58:50.671Z,2.51
2023-03-11T23:01:18.288Z,2.46
2023-03-11T23:03:46.111Z,2.35
2023-03-11T23:06:16.592Z,2.74
2023-03-11T23:08:44.845Z,2.19
2023-03-11T23:11:15.087Z,2.97
2023-03-11T23:13:43.378Z,2.60
2023-03-11T23:16:14.195Z,2.31
2023-03-11T23:18:43.379Z,2.18
2023-03-11T23:21:17.468Z,2.63
2023-03-11T23:23:46.145Z,1.97
2023-03-11T23:26:13.906Z,1.78
2023-03-11T23:28:41.858Z,2.27
2023-03-11T23:31:11.264Z,2.12
2023-03-11T23:33:38.953Z,2.03
2023-03-11T23:36:09.649Z,1.83
2023-03-11T23:38:37.381Z,1.85
2023-03-11T23:41:09.890Z,1.75
2023-03-11T23:43:37.987Z,1.61
2023-03-11T23:46:08.001Z,1.95
2023-03-11T23:48:35.518Z,1.86
2023-03-11T23:51:04.695Z,1.79
2023-03-11T23:53:32.519Z,1.91
2023-03-11T23:56:00.030Z,2.27
2023-03-11T23:58:27.743Z,2.32
